^^

Live Weather Display



Station Historical Data
Daily Summary for June 19, 2017 Units:  Both    English   Metric
« Previous Day
Next Day »
Daily Weekly Monthly Yearly Custom
  High: Low: Average:
Temperature: 85.6 °F /  29.8 °C 69.6 °F /  20.9 °C 76.3 °F /  24.6 °C
Dew Point: 73.9 °F /  23.3 °C 66.3 °F /  19.1 °C 70.3 °F /  21.3 °C
Humidity: 95 % 66 % 82 %
Wind Speed: 10.3 mph /  16.6 km/h - 1 mph /  1.6 km/h
Wind Gust: 20.1 mph /  32.3 km/h - -
Wind:- - SE
Pressure: 29.90 in /  1012.4 hPa 29.77 in /  1008 hPa -
Precipitation: 0.34 in /  8.64 mm    
Historical Graphs
 
 
Tabular Data for June 19, 2017
Time Temperature Dew Point Pressure Wind Wind Speed Wind Gust Humidity Rainfall Rate (Hourly)
00:04 80.4 °F /  26.9 °C 71.8 °F /  22.1 °C 29.82 in /  1009.7 hPa Calm   3.1 mph /  5 km/h 75 % 0.00 in /  0 mm
00:09 80.4 °F /  26.9 °C 71.8 °F /  22.1 °C 29.82 in /  1009.7 hPa Calm   2.9 mph /  4.7 km/h 75 % 0.00 in /  0 mm
00:14 80.4 °F /  26.9 °C 71.8 °F /  22.1 °C 29.82 in /  1009.7 hPa Calm   3.8 mph /  6.1 km/h 75 % 0.00 in /  0 mm
00:19 80.4 °F /  26.9 °C 71.4 °F /  21.9 °C 29.82 in /  1009.7 hPa SSE 0.9 mph /  1.4 km/h 4.9 mph /  7.9 km/h 74 % 0.00 in /  0 mm
00:24 80.4 °F /  26.9 °C 71.4 °F /  21.9 °C 29.81 in /  1009.4 hPa Calm   4.9 mph /  7.9 km/h 74 % 0.00 in /  0 mm
00:29 80.4 °F /  26.9 °C 71.4 °F /  21.9 °C 29.81 in /  1009.4 hPa Calm   4.7 mph /  7.6 km/h 74 % 0.00 in /  0 mm
00:34 80.2 °F /  26.8 °C 71.2 °F /  21.8 °C 29.82 in /  1009.7 hPa Calm   4.3 mph /  6.9 km/h 74 % 0.00 in /  0 mm
00:39 80.2 °F /  26.8 °C 71.2 °F /  21.8 °C 29.82 in /  1009.7 hPa Calm   10.3 mph /  16.6 km/h 74 % 0.00 in /  0 mm
00:44 80.2 °F /  26.8 °C 71.2 °F /  21.8 °C 29.81 in /  1009.4 hPa Calm   10.3 mph /  16.6 km/h 74 % 0.00 in /  0 mm
00:49 80.2 °F /  26.8 °C 71.2 °F /  21.8 °C 29.81 in /  1009.4 hPa Calm   8.5 mph /  13.7 km/h 74 % 0.00 in /  0 mm
00:54 80.1 °F /  26.7 °C 71.0 °F /  21.7 °C 29.81 in /  1009.4 hPa Calm   7.6 mph /  12.2 km/h 74 % 0.00 in /  0 mm
00:59 80.1 °F /  26.7 °C 71.0 °F /  21.7 °C 29.81 in /  1009.4 hPa Calm   7.6 mph /  12.2 km/h 74 % 0.00 in /  0 mm
01:04 79.9 °F /  26.6 °C 70.8 °F /  21.6 °C 29.81 in /  1009.4 hPa Calm   7.4 mph /  11.9 km/h 74 % 0.00 in /  0 mm
01:09 79.9 °F /  26.6 °C 70.8 °F /  21.6 °C 29.80 in /  1009 hPa Calm   10.5 mph /  16.9 km/h 74 % 0.00 in /  0 mm
01:14 79.9 °F /  26.6 °C 70.8 °F /  21.6 °C 29.81 in /  1009.4 hPa ESE 3.8 mph /  6.1 km/h 10.5 mph /  16.9 km/h 74 % 0.00 in /  0 mm
01:19 79.7 °F /  26.5 °C 70.7 °F /  21.5 °C 29.81 in /  1009.4 hPa Calm   7.8 mph /  12.6 km/h 74 % 0.00 in /  0 mm
01:24 79.5 °F /  26.4 °C 70.5 °F /  21.4 °C 29.81 in /  1009.4 hPa SE 2.9 mph /  4.7 km/h 7.8 mph /  12.6 km/h 74 % 0.00 in /  0 mm
01:29 79.5 °F /  26.4 °C 70.5 °F /  21.4 °C 29.81 in /  1009.4 hPa East 0.9 mph /  1.4 km/h 6.0 mph /  9.7 km/h 74 % 0.00 in /  0 mm
01:34 79.5 °F /  26.4 °C 70.5 °F /  21.4 °C 29.81 in /  1009.4 hPa Calm   5.8 mph /  9.3 km/h 74 % 0.00 in /  0 mm
01:39 79.3 °F /  26.3 °C 70.3 °F /  21.3 °C 29.81 in /  1009.4 hPa Calm   5.4 mph /  8.7 km/h 74 % 0.00 in /  0 mm
01:44 79.3 °F /  26.3 °C 70.3 °F /  21.3 °C 29.81 in /  1009.4 hPa Calm   10.3 mph /  16.6 km/h 74 % 0.00 in /  0 mm
01:49 79.2 °F /  26.2 °C 70.1 °F /  21.2 °C 29.81 in /  1009.4 hPa ESE 7.6 mph /  12.2 km/h 10.3 mph /  16.6 km/h 74 % 0.00 in /  0 mm
01:54 79.0 °F /  26.1 °C 69.9 °F /  21.1 °C 29.81 in /  1009.4 hPa Calm   7.6 mph /  12.2 km/h 74 % 0.00 in /  0 mm
01:59 79.0 °F /  26.1 °C 70.3 °F /  21.3 °C 29.81 in /  1009.4 hPa Calm   4.3 mph /  6.9 km/h 75 % 0.00 in /  0 mm
02:04 78.6 °F /  25.9 °C 70.0 °F /  21.1 °C 29.81 in /  1009.4 hPa Calm   5.8 mph /  9.3 km/h 75 % 0.00 in /  0 mm
02:09 78.6 °F /  25.9 °C 70.0 °F /  21.1 °C 29.81 in /  1009.4 hPa Calm   9.6 mph /  15.4 km/h 75 % 0.00 in /  0 mm
02:10 78.6 °F /  25.9 °C 70.0 °F /  21.1 °C 29.81 in /  1009.4 hPa Calm   9.6 mph /  15.4 km/h 75 % 0.00 in /  0 mm
02:15 78.6 °F /  25.9 °C 70.0 °F /  21.1 °C 29.80 in /  1009 hPa Calm   9.8 mph /  15.8 km/h 75 % 0.00 in /  0 mm
02:20 78.6 °F /  25.9 °C 70.0 °F /  21.1 °C 29.80 in /  1009 hPa ESE 6.0 mph /  9.7 km/h 9.8 mph /  15.8 km/h 75 % 0.00 in /  0 mm
02:25 78.6 °F /  25.9 °C 70.4 °F /  21.3 °C 29.80 in /  1009 hPa North 3.6 mph /  5.8 km/h 6.0 mph /  9.7 km/h 76 % 0.00 in /  0 mm
02:30 78.4 °F /  25.8 °C 70.2 °F /  21.2 °C 29.81 in /  1009.4 hPa SE 2.0 mph /  3.2 km/h 5.4 mph /  8.7 km/h 76 % 0.00 in /  0 mm
02:35 78.4 °F /  25.8 °C 70.2 °F /  21.2 °C 29.81 in /  1009.4 hPa Calm   9.2 mph /  14.8 km/h 76 % 0.00 in /  0 mm
02:40 78.1 °F /  25.6 °C 70.3 °F /  21.3 °C 29.82 in /  1009.7 hPa East 7.6 mph /  12.2 km/h 9.2 mph /  14.8 km/h 77 % 0.00 in /  0 mm
02:45 78.1 °F /  25.6 °C 70.3 °F /  21.3 °C 29.82 in /  1009.7 hPa Calm   8.9 mph /  14.3 km/h 77 % 0.00 in /  0 mm
02:50 78.1 °F /  25.6 °C 70.3 °F /  21.3 °C 29.81 in /  1009.4 hPa Calm   8.9 mph /  14.3 km/h 77 % 0.00 in /  0 mm
02:55 78.1 °F /  25.6 °C 70.6 °F /  21.4 °C 29.81 in /  1009.4 hPa Calm   6.3 mph /  10.1 km/h 78 % 0.00 in /  0 mm
03:00 77.9 °F /  25.5 °C 70.5 °F /  21.4 °C 29.81 in /  1009.4 hPa ESE 2.9 mph /  4.7 km/h 5.1 mph /  8.2 km/h 78 % 0.00 in /  0 mm
03:05 77.9 °F /  25.5 °C 70.5 °F /  21.4 °C 29.81 in /  1009.4 hPa Calm   5.1 mph /  8.2 km/h 78 % 0.00 in /  0 mm
03:10 77.7 °F /  25.4 °C 70.3 °F /  21.3 °C 29.81 in /  1009.4 hPa SE 2.5 mph /  4 km/h 4.9 mph /  7.9 km/h 78 % 0.00 in /  0 mm
03:15 77.7 °F /  25.4 °C 70.3 °F /  21.3 °C 29.81 in /  1009.4 hPa Calm   4.9 mph /  7.9 km/h 78 % 0.00 in /  0 mm
03:20 77.7 °F /  25.4 °C 70.7 °F /  21.5 °C 29.81 in /  1009.4 hPa Calm   8.9 mph /  14.3 km/h 79 % 0.00 in /  0 mm
03:25 77.5 °F /  25.3 °C 70.5 °F /  21.4 °C 29.81 in /  1009.4 hPa Calm   8.9 mph /  14.3 km/h 79 % 0.00 in /  0 mm
03:30 77.5 °F /  25.3 °C 70.5 °F /  21.4 °C 29.81 in /  1009.4 hPa SE 7.6 mph /  12.2 km/h 7.6 mph /  12.2 km/h 79 % 0.00 in /  0 mm
03:35 77.5 °F /  25.3 °C 70.9 °F /  21.6 °C 29.80 in /  1009 hPa Calm   7.6 mph /  12.2 km/h 80 % 0.00 in /  0 mm
03:40 77.5 °F /  25.3 °C 70.9 °F /  21.6 °C 29.80 in /  1009 hPa Calm   3.8 mph /  6.1 km/h 80 % 0.00 in /  0 mm
03:45 77.4 °F /  25.2 °C 70.7 °F /  21.5 °C 29.81 in /  1009.4 hPa Calm   3.1 mph /  5 km/h 80 % 0.00 in /  0 mm
03:50 77.2 °F /  25.1 °C 70.5 °F /  21.4 °C 29.80 in /  1009 hPa Calm   3.1 mph /  5 km/h 80 % 0.00 in /  0 mm
03:55 77.2 °F /  25.1 °C 70.9 °F /  21.6 °C 29.81 in /  1009.4 hPa ESE 4.0 mph /  6.4 km/h 5.1 mph /  8.2 km/h 81 % 0.00 in /  0 mm
03:57 77.2 °F /  25.1 °C 70.9 °F /  21.6 °C 29.81 in /  1009.4 hPa Calm   5.1 mph /  8.2 km/h 81 % 0.00 in /  0 mm
04:02 77.2 °F /  25.1 °C 70.9 °F /  21.6 °C 29.80 in /  1009 hPa ESE 4.9 mph /  7.9 km/h 5.1 mph /  8.2 km/h 81 % 0.00 in /  0 mm
04:07 77.0 °F /  25 °C 70.7 °F /  21.5 °C 29.80 in /  1009 hPa Calm   4.9 mph /  7.9 km/h 81 % 0.00 in /  0 mm
04:12 77.0 °F /  25 °C 70.7 °F /  21.5 °C 29.80 in /  1009 hPa SE 4.5 mph /  7.2 km/h 4.5 mph /  7.2 km/h 81 % 0.00 in /  0 mm
04:17 77.0 °F /  25 °C 70.7 °F /  21.5 °C 29.80 in /  1009 hPa Calm   4.5 mph /  7.2 km/h 81 % 0.00 in /  0 mm
04:22 76.8 °F /  24.9 °C 70.9 °F /  21.6 °C 29.81 in /  1009.4 hPa East 4.5 mph /  7.2 km/h 4.5 mph /  7.2 km/h 82 % 0.00 in /  0 mm
04:27 76.8 °F /  24.9 °C 70.9 °F /  21.6 °C 29.81 in /  1009.4 hPa Calm   4.5 mph /  7.2 km/h 82 % 0.00 in /  0 mm
04:32 76.8 °F /  24.9 °C 70.9 °F /  21.6 °C 29.81 in /  1009.4 hPa ESE 2.0 mph /  3.2 km/h 5.1 mph /  8.2 km/h 82 % 0.00 in /  0 mm
04:37 76.6 °F /  24.8 °C 70.7 °F /  21.5 °C 29.81 in /  1009.4 hPa Calm   5.1 mph /  8.2 km/h 82 % 0.00 in /  0 mm
04:42 76.6 °F /  24.8 °C 70.7 °F /  21.5 °C 29.80 in /  1009 hPa Calm   8.1 mph /  13 km/h 82 % 0.00 in /  0 mm
04:47 76.6 °F /  24.8 °C 70.7 °F /  21.5 °C 29.81 in /  1009.4 hPa Calm   8.1 mph /  13 km/h 82 % 0.00 in /  0 mm
04:52 76.6 °F /  24.8 °C 70.7 °F /  21.5 °C 29.81 in /  1009.4 hPa ESE 8.3 mph /  13.4 km/h 8.3 mph /  13.4 km/h 82 % 0.00 in /  0 mm
04:57 76.6 °F /  24.8 °C 70.7 °F /  21.5 °C 29.81 in /  1009.4 hPa Calm   10.3 mph /  16.6 km/h 82 % 0.00 in /  0 mm
05:02 76.6 °F /  24.8 °C 70.7 °F /  21.5 °C 29.81 in /  1009.4 hPa Calm   10.3 mph /  16.6 km/h 82 % 0.00 in /  0 mm
05:07 76.5 °F /  24.7 °C 70.9 °F /  21.6 °C 29.82 in /  1009.7 hPa ESE 3.8 mph /  6.1 km/h 5.4 mph /  8.7 km/h 83 % 0.00 in /  0 mm
05:12 76.5 °F /  24.7 °C 70.9 °F /  21.6 °C 29.81 in /  1009.4 hPa Calm   5.4 mph /  8.7 km/h 83 % 0.00 in /  0 mm
05:17 76.3 °F /  24.6 °C 70.7 °F /  21.5 °C 29.81 in /  1009.4 hPa Calm   6.3 mph /  10.1 km/h 83 % 0.00 in /  0 mm
05:22 76.3 °F /  24.6 °C 70.7 °F /  21.5 °C 29.82 in /  1009.7 hPa Calm   6.3 mph /  10.1 km/h 83 % 0.00 in /  0 mm
05:27 76.3 °F /  24.6 °C 70.7 °F /  21.5 °C 29.82 in /  1009.7 hPa Calm   3.8 mph /  6.1 km/h 83 % 0.00 in /  0 mm
05:32 76.3 °F /  24.6 °C 70.7 °F /  21.5 °C 29.82 in /  1009.7 hPa ESE 9.4 mph /  15.1 km/h 9.4 mph /  15.1 km/h 83 % 0.00 in /  0 mm
05:37 76.3 °F /  24.6 °C 70.7 °F /  21.5 °C 29.83 in /  1010 hPa Calm   9.4 mph /  15.1 km/h 83 % 0.00 in /  0 mm
05:42 76.1 °F /  24.5 °C 70.9 °F /  21.6 °C 29.82 in /  1009.7 hPa Calm   9.4 mph /  15.1 km/h 84 % 0.00 in /  0 mm
05:52 76.1 °F /  24.5 °C 70.9 °F /  21.6 °C 29.82 in /  1009.7 hPa Calm   4.5 mph /  7.2 km/h 84 % 0.00 in /  0 mm
05:57 75.9 °F /  24.4 °C 70.9 °F /  21.6 °C 29.82 in /  1009.7 hPa WSW 1.8 mph /  2.9 km/h 7.8 mph /  12.6 km/h 84 % 0.00 in /  0 mm
06:02 75.9 °F /  24.4 °C 70.4 °F /  21.3 °C 29.82 in /  1009.7 hPa Calm   7.8 mph /  12.6 km/h 83 % 0.00 in /  0 mm
06:07 75.9 °F /  24.4 °C 70.4 °F /  21.3 °C 29.82 in /  1009.7 hPa Calm   4.5 mph /  7.2 km/h 83 % 0.00 in /  0 mm
06:12 75.9 °F /  24.4 °C 70.4 °F /  21.3 °C 29.82 in /  1009.7 hPa Calm   4.5 mph /  7.2 km/h 83 % 0.00 in /  0 mm
06:17 75.9 °F /  24.4 °C 70.4 °F /  21.3 °C 29.82 in /  1009.7 hPa Calm   6.0 mph /  9.7 km/h 83 % 0.00 in /  0 mm
06:22 75.9 °F /  24.4 °C 70.4 °F /  21.3 °C 29.82 in /  1009.7 hPa South 1.6 mph /  2.6 km/h 6.5 mph /  10.5 km/h 83 % 0.00 in /  0 mm
06:27 75.9 °F /  24.4 °C 70.4 °F /  21.3 °C 29.82 in /  1009.7 hPa East 3.4 mph /  5.5 km/h 6.5 mph /  10.5 km/h 83 % 0.00 in /  0 mm
06:32 75.9 °F /  24.4 °C 70.4 °F /  21.3 °C 29.83 in /  1010 hPa SE 2.2 mph /  3.5 km/h 6.0 mph /  9.7 km/h 83 % 0.00 in /  0 mm
06:37 75.9 °F /  24.4 °C 70.4 °F /  21.3 °C 29.83 in /  1010 hPa Calm   2.2 mph /  3.5 km/h 83 % 0.00 in /  0 mm
06:42 75.9 °F /  24.4 °C 70.4 °F /  21.3 °C 29.83 in /  1010 hPa Calm   6.7 mph /  10.8 km/h 83 % 0.00 in /  0 mm
06:47 75.9 °F /  24.4 °C 70.1 °F /  21.2 °C 29.83 in /  1010 hPa ESE 4.5 mph /  7.2 km/h 6.7 mph /  10.8 km/h 82 % 0.00 in /  0 mm
06:52 76.1 °F /  24.5 °C 70.2 °F /  21.2 °C 29.83 in /  1010 hPa SW 3.1 mph /  5 km/h 5.1 mph /  8.2 km/h 82 % 0.00 in /  0 mm
06:57 76.3 °F /  24.6 °C 70.4 °F /  21.3 °C 29.83 in /  1010 hPa Calm   5.6 mph /  9 km/h 82 % 0.00 in /  0 mm
07:02 76.5 °F /  24.7 °C 70.2 °F /  21.2 °C 29.83 in /  1010 hPa Calm   6.3 mph /  10.1 km/h 81 % 0.00 in /  0 mm
07:07 76.6 °F /  24.8 °C 70.4 °F /  21.3 °C 29.83 in /  1010 hPa Calm   6.3 mph /  10.1 km/h 81 % 0.00 in /  0 mm
07:12 76.6 °F /  24.8 °C 70.0 °F /  21.1 °C 29.83 in /  1010 hPa Calm   4.5 mph /  7.2 km/h 80 % 0.00 in /  0 mm
07:17 76.6 °F /  24.8 °C 70.0 °F /  21.1 °C 29.83 in /  1010 hPa Calm   8.3 mph /  13.4 km/h 80 % 0.00 in /  0 mm
07:22 76.6 °F /  24.8 °C 70.0 °F /  21.1 °C 29.83 in /  1010 hPa ESE 4.7 mph /  7.6 km/h 8.3 mph /  13.4 km/h 80 % 0.00 in /  0 mm
07:27 76.6 °F /  24.8 °C 70.0 °F /  21.1 °C 29.83 in /  1010 hPa ESE 1.6 mph /  2.6 km/h 4.7 mph /  7.6 km/h 80 % 0.00 in /  0 mm
07:32 76.6 °F /  24.8 °C 69.9 °F /  21.1 °C 29.84 in /  1010.4 hPa Calm   4.7 mph /  7.6 km/h 80 % 0.00 in /  0 mm
07:37 76.5 °F /  24.7 °C 69.9 °F /  21.1 °C 29.84 in /  1010.4 hPa ESE 3.4 mph /  5.5 km/h 5.4 mph /  8.7 km/h 80 % 0.00 in /  0 mm
07:42 76.5 °F /  24.7 °C 69.9 °F /  21.1 °C 29.84 in /  1010.4 hPa WSW 1.6 mph /  2.6 km/h 6.9 mph /  11.1 km/h 80 % 0.00 in /  0 mm
07:47 76.5 °F /  24.7 °C 69.9 °F /  21.1 °C 29.84 in /  1010.4 hPa ESE 2.5 mph /  4 km/h 6.9 mph /  11.1 km/h 80 % 0.00 in /  0 mm
07:52 76.3 °F /  24.6 °C 69.7 °F /  20.9 °C 29.84 in /  1010.4 hPa SE 2.5 mph /  4 km/h 2.9 mph /  4.7 km/h 80 % 0.00 in /  0 mm
07:57 76.1 °F /  24.5 °C 69.5 °F /  20.8 °C 29.84 in /  1010.4 hPa Calm   7.8 mph /  12.6 km/h 80 % 0.00 in /  0 mm
08:02 76.1 °F /  24.5 °C 69.5 °F /  20.8 °C 29.84 in /  1010.4 hPa SSE 4.0 mph /  6.4 km/h 7.8 mph /  12.6 km/h 80 % 0.00 in /  0 mm
08:07 75.9 °F /  24.4 °C 69.5 °F /  20.8 °C 29.84 in /  1010.4 hPa SE 5.6 mph /  9 km/h 6.7 mph /  10.8 km/h 80 % 0.00 in /  0 mm
08:12 75.9 °F /  24.4 °C 69.4 °F /  20.8 °C 29.84 in /  1010.4 hPa Calm   10.7 mph /  17.2 km/h 80 % 0.00 in /  0 mm
08:17 75.9 °F /  24.4 °C 69.4 °F /  20.8 °C 29.84 in /  1010.4 hPa East 4.7 mph /  7.6 km/h 10.7 mph /  17.2 km/h 80 % 0.00 in /  0 mm
08:22 75.9 °F /  24.4 °C 69.4 °F /  20.8 °C 29.84 in /  1010.4 hPa ESE 3.6 mph /  5.8 km/h 6.9 mph /  11.1 km/h 80 % 0.00 in /  0 mm
08:27 75.9 °F /  24.4 °C 69.7 °F /  20.9 °C 29.84 in /  1010.4 hPa Calm   8.7 mph /  14 km/h 81 % 0.00 in /  0 mm
08:32 76.1 °F /  24.5 °C 69.5 °F /  20.8 °C 29.84 in /  1010.4 hPa SE 2.9 mph /  4.7 km/h 8.7 mph /  14 km/h 80 % 0.00 in /  0 mm
08:37 76.1 °F /  24.5 °C 69.1 °F /  20.6 °C 29.84 in /  1010.4 hPa South 1.8 mph /  2.9 km/h 6.7 mph /  10.8 km/h 79 % 0.00 in /  0 mm
08:42 75.9 °F /  24.4 °C 69.0 °F /  20.6 °C 29.84 in /  1010.4 hPa Calm   7.6 mph /  12.2 km/h 79 % 0.00 in /  0 mm
08:47 75.9 °F /  24.4 °C 69.5 °F /  20.8 °C 29.84 in /  1010.4 hPa Calm   9.8 mph /  15.8 km/h 80 % 0.00 in /  0 mm
08:52 76.1 °F /  24.5 °C 69.5 °F /  20.8 °C 29.84 in /  1010.4 hPa SE 1.3 mph /  2.1 km/h 9.8 mph /  15.8 km/h 80 % 0.00 in /  0 mm
08:57 76.3 °F /  24.6 °C 69.3 °F /  20.7 °C 29.84 in /  1010.4 hPa SSE 0.9 mph /  1.4 km/h 8.9 mph /  14.3 km/h 79 % 0.00 in /  0 mm
09:02 76.3 °F /  24.6 °C 69.3 °F /  20.7 °C 29.84 in /  1010.4 hPa ENE 4.3 mph /  6.9 km/h 15.2 mph /  24.5 km/h 79 % 0.00 in /  0 mm
09:07 76.3 °F /  24.6 °C 69.3 °F /  20.7 °C 29.83 in /  1010 hPa Calm   15.2 mph /  24.5 km/h 80 % 0.00 in /  0 mm
09:12 76.6 °F /  24.8 °C 70.0 °F /  21.1 °C 29.84 in /  1010.4 hPa Calm   8.3 mph /  13.4 km/h 80 % 0.00 in /  0 mm
09:17 76.8 °F /  24.9 °C 70.2 °F /  21.2 °C 29.83 in /  1010 hPa Calm   8.1 mph /  13 km/h 80 % 0.00 in /  0 mm
09:22 77.2 °F /  25.1 °C 70.1 °F /  21.2 °C 29.84 in /  1010.4 hPa SE 2.5 mph /  4 km/h 8.5 mph /  13.7 km/h 79 % 0.00 in /  0 mm
09:27 77.2 °F /  25.1 °C 70.1 °F /  21.2 °C 29.83 in /  1010 hPa Calm   8.5 mph /  13.7 km/h 79 % 0.00 in /  0 mm
09:32 77.5 °F /  25.3 °C 70.5 °F /  21.4 °C 29.83 in /  1010 hPa Calm   5.6 mph /  9 km/h 79 % 0.00 in /  0 mm
09:37 77.9 °F /  25.5 °C 70.5 °F /  21.4 °C 29.83 in /  1010 hPa SW 3.1 mph /  5 km/h 7.8 mph /  12.6 km/h 78 % 0.00 in /  0 mm
09:42 78.1 °F /  25.6 °C 70.6 °F /  21.4 °C 29.83 in /  1010 hPa ESE 2.0 mph /  3.2 km/h 7.8 mph /  12.6 km/h 78 % 0.00 in /  0 mm
09:47 78.4 °F /  25.8 °C 71.0 °F /  21.7 °C 29.83 in /  1010 hPa Calm   7.8 mph /  12.6 km/h 78 % 0.00 in /  0 mm
09:52 78.6 °F /  25.9 °C 71.2 °F /  21.8 °C 29.83 in /  1010 hPa WSW 2.2 mph /  3.5 km/h 9.4 mph /  15.1 km/h 78 % 0.00 in /  0 mm
09:57 78.6 °F /  25.9 °C 71.2 °F /  21.8 °C 29.83 in /  1010 hPa ESE 4.9 mph /  7.9 km/h 9.4 mph /  15.1 km/h 78 % 0.00 in /  0 mm
10:02 79.0 °F /  26.1 °C 70.7 °F /  21.5 °C 29.83 in /  1010 hPa SSE 3.4 mph /  5.5 km/h 16.3 mph /  26.2 km/h 76 % 0.00 in /  0 mm
10:07 79.2 °F /  26.2 °C 71.3 °F /  21.8 °C 29.83 in /  1010 hPa East 2.5 mph /  4 km/h 16.3 mph /  26.2 km/h 77 % 0.00 in /  0 mm
10:12 79.5 °F /  26.4 °C 71.7 °F /  22.1 °C 29.83 in /  1010 hPa Calm   9.6 mph /  15.4 km/h 77 % 0.00 in /  0 mm
10:17 79.9 °F /  26.6 °C 71.6 °F /  22 °C 29.84 in /  1010.4 hPa Calm   6.9 mph /  11.1 km/h 76 % 0.00 in /  0 mm
10:22 80.1 °F /  26.7 °C 71.4 °F /  21.9 °C 29.84 in /  1010.4 hPa Calm   9.4 mph /  15.1 km/h 75 % 0.00 in /  0 mm
10:27 79.9 °F /  26.6 °C 71.6 °F /  22 °C 29.84 in /  1010.4 hPa ESE 2.9 mph /  4.7 km/h 9.4 mph /  15.1 km/h 76 % 0.00 in /  0 mm
10:32 80.2 °F /  26.8 °C 72.0 °F /  22.2 °C 29.84 in /  1010.4 hPa Calm   9.2 mph /  14.8 km/h 76 % 0.00 in /  0 mm
10:37 80.4 °F /  26.9 °C 72.2 °F /  22.3 °C 29.84 in /  1010.4 hPa Calm   9.2 mph /  14.8 km/h 76 % 0.00 in /  0 mm
10:42 80.4 °F /  26.9 °C 72.2 °F /  22.3 °C 29.83 in /  1010 hPa Calm   8.5 mph /  13.7 km/h 76 % 0.00 in /  0 mm
10:47 80.4 °F /  26.9 °C 72.2 °F /  22.3 °C 29.84 in /  1010.4 hPa Calm   8.5 mph /  13.7 km/h 76 % 0.00 in /  0 mm
10:52 79.9 °F /  26.6 °C 71.6 °F /  22 °C 29.84 in /  1010.4 hPa Calm   6.3 mph /  10.1 km/h 76 % 0.00 in /  0 mm
10:57 79.5 °F /  26.4 °C 71.7 °F /  22.1 °C 29.83 in /  1010 hPa SSE 3.4 mph /  5.5 km/h 7.4 mph /  11.9 km/h 77 % 0.00 in /  0 mm
11:02 79.5 °F /  26.4 °C 71.7 °F /  22.1 °C 29.83 in /  1010 hPa SSE 2.2 mph /  3.5 km/h 8.3 mph /  13.4 km/h 77 % 0.00 in /  0 mm
11:07 79.5 °F /  26.4 °C 72.1 °F /  22.3 °C 29.83 in /  1010 hPa Calm   8.3 mph /  13.4 km/h 78 % 0.00 in /  0 mm
11:12 79.5 °F /  26.4 °C 71.7 °F /  22.1 °C 29.84 in /  1010.4 hPa SW 3.6 mph /  5.8 km/h 7.8 mph /  12.6 km/h 77 % 0.00 in /  0 mm
11:17 79.5 °F /  26.4 °C 71.3 °F /  21.8 °C 29.84 in /  1010.4 hPa Calm   13.2 mph /  21.2 km/h 76 % 0.00 in /  0 mm
11:22 79.3 °F /  26.3 °C 71.1 °F /  21.7 °C 29.84 in /  1010.4 hPa East 1.8 mph /  2.9 km/h 13.2 mph /  21.2 km/h 76 % 0.00 in /  0 mm
11:27 79.5 °F /  26.4 °C 71.7 °F /  22.1 °C 29.84 in /  1010.4 hPa Calm   9.6 mph /  15.4 km/h 77 % 0.00 in /  0 mm
11:30 79.7 °F /  26.5 °C 71.9 °F /  22.2 °C 29.84 in /  1010.4 hPa Calm   6.3 mph /  10.1 km/h 77 % 0.00 in /  0 mm
11:35 80.2 °F /  26.8 °C 72.0 °F /  22.2 °C 29.84 in /  1010.4 hPa Calm   11.2 mph /  18 km/h 76 % 0.00 in /  0 mm
11:40 80.4 °F /  26.9 °C 71.8 °F /  22.1 °C 29.83 in /  1010 hPa Calm   11.2 mph /  18 km/h 75 % 0.00 in /  0 mm
11:45 80.4 °F /  26.9 °C 71.8 °F /  22.1 °C 29.84 in /  1010.4 hPa SE 0.7 mph /  1.1 km/h 10.7 mph /  17.2 km/h 75 % 0.00 in /  0 mm
11:50 80.2 °F /  26.8 °C 72.0 °F /  22.2 °C 29.84 in /  1010.4 hPa ESE 5.6 mph /  9 km/h 6.7 mph /  10.8 km/h 76 % 0.00 in /  0 mm
11:55 80.2 °F /  26.8 °C 72.0 °F /  22.2 °C 29.84 in /  1010.4 hPa ENE 1.1 mph /  1.8 km/h 13.2 mph /  21.2 km/h 76 % 0.00 in /  0 mm
12:00 80.4 °F /  26.9 °C 72.2 °F /  22.3 °C 29.84 in /  1010.4 hPa SE 3.6 mph /  5.8 km/h 13.2 mph /  21.2 km/h 75 % 0.00 in /  0 mm
12:05 80.8 °F /  27.1 °C 72.1 °F /  22.3 °C 29.83 in /  1010 hPa SE 2.2 mph /  3.5 km/h 10.5 mph /  16.9 km/h 75 % 0.00 in /  0 mm
12:10 81.1 °F /  27.3 °C 72.5 °F /  22.5 °C 29.83 in /  1010 hPa East 2.2 mph /  3.5 km/h 10.5 mph /  16.9 km/h 75 % 0.00 in /  0 mm
12:15 81.1 °F /  27.3 °C 72.1 °F /  22.3 °C 29.83 in /  1010 hPa SSE 5.6 mph /  9 km/h 6.0 mph /  9.7 km/h 74 % 0.00 in /  0 mm
12:20 81.1 °F /  27.3 °C 72.1 °F /  22.3 °C 29.83 in /  1010 hPa ESE 5.1 mph /  8.2 km/h 6.0 mph /  9.7 km/h 74 % 0.00 in /  0 mm
12:25 81.5 °F /  27.5 °C 71.6 °F /  22 °C 29.83 in /  1010 hPa Calm   10.5 mph /  16.9 km/h 72 % 0.00 in /  0 mm
12:30 81.7 °F /  27.6 °C 71.8 °F /  22.1 °C 29.83 in /  1010 hPa SW 3.4 mph /  5.5 km/h 10.5 mph /  16.9 km/h 72 % 0.00 in /  0 mm
12:35 82.2 °F /  27.9 °C 72.2 °F /  22.3 °C 29.83 in /  1010 hPa SE 10.3 mph /  16.6 km/h 10.3 mph /  16.6 km/h 72 % 0.00 in /  0 mm
12:40 82.0 °F /  27.8 °C 71.7 °F /  22.1 °C 29.82 in /  1009.7 hPa Calm   11.0 mph /  17.7 km/h 71 % 0.00 in /  0 mm
12:45 82.2 °F /  27.9 °C 71.8 °F /  22.1 °C 29.82 in /  1009.7 hPa Calm   11.0 mph /  17.7 km/h 71 % 0.00 in /  0 mm
12:50 82.0 °F /  27.8 °C 71.7 °F /  22.1 °C 29.82 in /  1009.7 hPa SE 6.9 mph /  11.1 km/h 11.9 mph /  19.2 km/h 71 % 0.00 in /  0 mm
12:55 82.2 °F /  27.9 °C 72.2 °F /  22.3 °C 29.82 in /  1009.7 hPa Calm   11.9 mph /  19.2 km/h 72 % 0.00 in /  0 mm
13:00 82.8 °F /  28.2 °C 72.0 °F /  22.2 °C 29.81 in /  1009.4 hPa East 3.6 mph /  5.8 km/h 12.3 mph /  19.8 km/h 70 % 0.00 in /  0 mm
13:05 82.9 °F /  28.3 °C 72.1 °F /  22.3 °C 29.82 in /  1009.7 hPa SSE 1.6 mph /  2.6 km/h 12.3 mph /  19.8 km/h 70 % 0.00 in /  0 mm
13:10 83.1 °F /  28.4 °C 72.7 °F /  22.6 °C 29.81 in /  1009.4 hPa Calm   7.4 mph /  11.9 km/h 71 % 0.00 in /  0 mm
13:12 83.3 °F /  28.5 °C 72.9 °F /  22.7 °C 29.80 in /  1009 hPa Calm   4.9 mph /  7.9 km/h 71 % 0.00 in /  0 mm
13:17 83.3 °F /  28.5 °C 71.6 °F /  22 °C 29.80 in /  1009 hPa Calm   6.0 mph /  9.7 km/h 68 % 0.00 in /  0 mm
13:22 83.5 °F /  28.6 °C 72.2 °F /  22.3 °C 29.80 in /  1009 hPa ESE 3.1 mph /  5 km/h 6.0 mph /  9.7 km/h 69 % 0.00 in /  0 mm
13:27 83.7 °F /  28.7 °C 72.4 °F /  22.4 °C 29.80 in /  1009 hPa South 3.1 mph /  5 km/h 13.2 mph /  21.2 km/h 69 % 0.00 in /  0 mm
13:32 83.7 °F /  28.7 °C 72.4 °F /  22.4 °C 29.79 in /  1008.7 hPa SSE 8.3 mph /  13.4 km/h 13.2 mph /  21.2 km/h 69 % 0.00 in /  0 mm
13:37 83.8 °F /  28.8 °C 72.1 °F /  22.3 °C 29.79 in /  1008.7 hPa ESE 6.5 mph /  10.5 km/h 20.1 mph /  32.3 km/h 68 % 0.00 in /  0 mm
13:42 84.2 °F /  29 °C 73.0 °F /  22.8 °C 29.79 in /  1008.7 hPa Calm   20.1 mph /  32.3 km/h 69 % 0.00 in /  0 mm
13:47 84.4 °F /  29.1 °C 72.7 °F /  22.6 °C 29.78 in /  1008.4 hPa SE 3.4 mph /  5.5 km/h 14.5 mph /  23.3 km/h 68 % 0.00 in /  0 mm
13:52 84.4 °F /  29.1 °C 72.7 °F /  22.6 °C 29.78 in /  1008.4 hPa East 2.9 mph /  4.7 km/h 14.5 mph /  23.3 km/h 68 % 0.00 in /  0 mm
13:57 84.6 °F /  29.2 °C 72.8 °F /  22.7 °C 29.78 in /  1008.4 hPa SE 1.8 mph /  2.9 km/h 9.4 mph /  15.1 km/h 68 % 0.00 in /  0 mm
14:02 85.3 °F /  29.6 °C 73.5 °F /  23.1 °C 29.78 in /  1008.4 hPa SE 2.5 mph /  4 km/h 9.8 mph /  15.8 km/h 68 % 0.00 in /  0 mm
14:07 85.1 °F /  29.5 °C 72.9 °F /  22.7 °C 29.78 in /  1008.4 hPa East 2.0 mph /  3.2 km/h 12.8 mph /  20.6 km/h 67 % 0.00 in /  0 mm
14:12 85.1 °F /  29.5 °C 73.4 °F /  23 °C 29.78 in /  1008.4 hPa Calm   12.8 mph /  20.6 km/h 68 % 0.00 in /  0 mm
14:17 85.6 °F /  29.8 °C 73.4 °F /  23 °C 29.78 in /  1008.4 hPa SSW 5.4 mph /  8.7 km/h 8.9 mph /  14.3 km/h 67 % 0.00 in /  0 mm
14:22 85.5 °F /  29.7 °C 73.3 °F /  22.9 °C 29.78 in /  1008.4 hPa Calm   6.9 mph /  11.1 km/h 67 % 0.00 in /  0 mm
14:27 85.6 °F /  29.8 °C 73.4 °F /  23 °C 29.77 in /  1008 hPa SE 4.7 mph /  7.6 km/h 8.1 mph /  13 km/h 67 % 0.00 in /  0 mm
14:32 85.6 °F /  29.8 °C 73.9 °F /  23.3 °C 29.77 in /  1008 hPa Calm   8.1 mph /  13 km/h 68 % 0.00 in /  0 mm
14:37 85.6 °F /  29.8 °C 73.4 °F /  23 °C 29.77 in /  1008 hPa East 5.4 mph /  8.7 km/h 9.8 mph /  15.8 km/h 66 % 0.00 in /  0 mm
14:42 84.7 °F /  29.3 °C 72.1 °F /  22.3 °C 29.78 in /  1008.4 hPa Calm   12.3 mph /  19.8 km/h 67 % 0.00 in /  0 mm
14:47 84.6 °F /  29.2 °C 72.4 °F /  22.4 °C 29.78 in /  1008.4 hPa Calm   12.3 mph /  19.8 km/h 67 % 0.00 in /  0 mm
14:52 84.2 °F /  29 °C 72.5 °F /  22.5 °C 29.79 in /  1008.7 hPa ESE 2.2 mph /  3.5 km/h 9.4 mph /  15.1 km/h 68 % 0.00 in /  0 mm
14:57 83.7 °F /  28.7 °C 72.0 °F /  22.2 °C 29.79 in /  1008.7 hPa Calm   11.6 mph /  18.7 km/h 68 % 0.00 in /  0 mm
15:02 83.7 °F /  28.7 °C 72.4 °F /  22.4 °C 29.78 in /  1008.4 hPa SSE 2.7 mph /  4.3 km/h 11.6 mph /  18.7 km/h 69 % 0.00 in /  0 mm
15:07 83.5 °F /  28.6 °C 71.8 °F /  22.1 °C 29.79 in /  1008.7 hPa Calm   4.0 mph /  6.4 km/h 68 % 0.00 in /  0 mm
15:12 83.3 °F /  28.5 °C 72.1 °F /  22.3 °C 29.79 in /  1008.7 hPa Calm   5.8 mph /  9.3 km/h 69 % 0.00 in /  0 mm
15:17 83.1 °F /  28.4 °C 71.9 °F /  22.2 °C 29.79 in /  1008.7 hPa SSE 2.0 mph /  3.2 km/h 9.6 mph /  15.4 km/h 69 % 0.00 in /  0 mm
15:22 82.9 °F /  28.3 °C 72.1 °F /  22.3 °C 29.79 in /  1008.7 hPa Calm   9.6 mph /  15.4 km/h 70 % 0.00 in /  0 mm
15:27 82.8 °F /  28.2 °C 72.1 °F /  22.3 °C 29.83 in /  1010 hPa North 2.9 mph /  4.7 km/h 14.1 mph /  22.7 km/h 70 % 0.00 in /  0 mm
15:32 79.2 °F /  26.2 °C 69.3 °F /  20.7 °C 29.83 in /  1010 hPa Calm   14.1 mph /  22.7 km/h 72 % 0.14 in /  3.56 mm
15:33 77.7 °F /  25.4 °C 68.4 °F /  20.2 °C 29.82 in /  1009.7 hPa Calm   14.1 mph /  22.7 km/h 73 % 0.16 in /  4.06 mm
15:38 75.0 °F /  23.9 °C 67.0 °F /  19.4 °C 29.80 in /  1009 hPa Calm   9.4 mph /  15.1 km/h 76 % 0.18 in /  4.57 mm
15:43 73.0 °F /  22.8 °C 66.6 °F /  19.2 °C 29.81 in /  1009.4 hPa Calm   2.2 mph /  3.5 km/h 80 % 0.18 in /  4.57 mm
15:48 71.8 °F /  22.1 °C 66.5 °F /  19.2 °C 29.81 in /  1009.4 hPa Calm   2.2 mph /  3.5 km/h 83 % 0.18 in /  4.57 mm
15:53 71.2 °F /  21.8 °C 66.5 °F /  19.2 °C 29.81 in /  1009.4 hPa Calm     85 % 0.18 in /  4.57 mm
15:58 70.7 °F /  21.5 °C 66.3 °F /  19.1 °C 29.81 in /  1009.4 hPa Calm   4.3 mph /  6.9 km/h 86 % 0.18 in /  4.57 mm
16:01 70.5 °F /  21.4 °C 66.4 °F /  19.1 °C 29.81 in /  1009.4 hPa Calm   4.3 mph /  6.9 km/h 87 % 0.18 in /  4.57 mm
16:06 70.3 °F /  21.3 °C 66.6 °F /  19.2 °C 29.81 in /  1009.4 hPa NNW 2.0 mph /  3.2 km/h 2.0 mph /  3.2 km/h 88 % 0.18 in /  4.57 mm
16:11 70.2 °F /  21.2 °C 66.4 °F /  19.1 °C 29.81 in /  1009.4 hPa Calm   2.0 mph /  3.2 km/h 88 % 0.18 in /  4.57 mm
16:16 70.2 °F /  21.2 °C 66.8 °F /  19.3 °C 29.81 in /  1009.4 hPa Calm     89 % 0.18 in /  4.57 mm
16:21 70.3 °F /  21.3 °C 67.3 °F /  19.6 °C 29.81 in /  1009.4 hPa Calm     90 % 0.18 in /  4.57 mm
16:26 70.3 °F /  21.3 °C 67.3 °F /  19.6 °C 29.80 in /  1009 hPa Calm     90 % 0.18 in /  4.57 mm
16:31 70.3 °F /  21.3 °C 67.3 °F /  19.6 °C 29.81 in /  1009.4 hPa Calm   2.5 mph /  4 km/h 90 % 0.08 in /  2.03 mm
16:36 70.3 °F /  21.3 °C 67.6 °F /  19.8 °C 29.81 in /  1009.4 hPa Calm   2.5 mph /  4 km/h 91 % 0.00 in /  0 mm
16:41 70.5 °F /  21.4 °C 67.6 °F /  19.8 °C 29.82 in /  1009.7 hPa Calm     91 % 0.02 in /  0.51 mm
16:46 70.5 °F /  21.4 °C 68.1 °F /  20.1 °C 29.82 in /  1009.7 hPa Calm     92 % 0.02 in /  0.51 mm
16:51 70.5 °F /  21.4 °C 68.1 °F /  20.1 °C 29.82 in /  1009.7 hPa Calm   1.8 mph /  2.9 km/h 92 % 0.08 in /  2.03 mm
16:56 70.7 °F /  21.5 °C 68.6 °F /  20.3 °C 29.81 in /  1009.4 hPa Calm   1.8 mph /  2.9 km/h 93 % 0.08 in /  2.03 mm
16:57 70.7 °F /  21.5 °C 68.6 °F /  20.3 °C 29.81 in /  1009.4 hPa Calm   1.8 mph /  2.9 km/h 93 % 0.10 in /  2.54 mm
17:02 70.9 °F /  21.6 °C 68.7 °F /  20.4 °C 29.81 in /  1009.4 hPa Calm   6.0 mph /  9.7 km/h 93 % 0.10 in /  2.54 mm
17:07 70.9 °F /  21.6 °C 68.7 °F /  20.4 °C 29.80 in /  1009 hPa Calm   6.0 mph /  9.7 km/h 93 % 0.10 in /  2.54 mm
17:12 70.9 °F /  21.6 °C 68.7 °F /  20.4 °C 29.81 in /  1009.4 hPa Calm   3.4 mph /  5.5 km/h 93 % 0.10 in /  2.54 mm
17:17 71.1 °F /  21.7 °C 68.9 °F /  20.5 °C 29.81 in /  1009.4 hPa Calm   2.9 mph /  4.7 km/h 93 % 0.10 in /  2.54 mm
17:22 71.2 °F /  21.8 °C 69.1 °F /  20.6 °C 29.82 in /  1009.7 hPa Calm   2.2 mph /  3.5 km/h 93 % 0.10 in /  2.54 mm
17:27 71.4 °F /  21.9 °C 69.3 °F /  20.7 °C 29.81 in /  1009.4 hPa Calm   2.2 mph /  3.5 km/h 93 % 0.14 in /  3.56 mm
17:32 71.2 °F /  21.8 °C 69.1 °F /  20.6 °C 29.81 in /  1009.4 hPa Calm   1.6 mph /  2.6 km/h 93 % 0.14 in /  3.56 mm
17:37 71.2 °F /  21.8 °C 69.1 °F /  20.6 °C 29.81 in /  1009.4 hPa Calm   1.6 mph /  2.6 km/h 93 % 0.14 in /  3.56 mm
17:42 71.2 °F /  21.8 °C 69.1 °F /  20.6 °C 29.80 in /  1009 hPa Calm     93 % 0.14 in /  3.56 mm
17:47 71.2 °F /  21.8 °C 69.1 °F /  20.6 °C 29.80 in /  1009 hPa Calm     93 % 0.12 in /  3.05 mm
17:52 71.2 °F /  21.8 °C 69.4 °F /  20.8 °C 29.81 in /  1009.4 hPa Calm     94 % 0.08 in /  2.03 mm
17:57 71.4 °F /  21.9 °C 69.6 °F /  20.9 °C 29.81 in /  1009.4 hPa Calm     94 % 0.06 in /  1.52 mm
18:02 71.4 °F /  21.9 °C 69.6 °F /  20.9 °C 29.82 in /  1009.7 hPa Calm     94 % 0.06 in /  1.52 mm
18:07 71.8 °F /  22.1 °C 69.9 °F /  21.1 °C 29.82 in /  1009.7 hPa Calm     94 % 0.06 in /  1.52 mm
18:12 71.8 °F /  22.1 °C 69.9 °F /  21.1 °C 29.82 in /  1009.7 hPa Calm     94 % 0.06 in /  1.52 mm
18:17 71.8 °F /  22.1 °C 69.9 °F /  21.1 °C 29.82 in /  1009.7 hPa Calm     94 % 0.06 in /  1.52 mm
18:22 71.8 °F /  22.1 °C 69.9 °F /  21.1 °C 29.82 in /  1009.7 hPa Calm     94 % 0.04 in /  1.02 mm
18:23 71.8 °F /  22.1 °C 69.9 °F /  21.1 °C 29.82 in /  1009.7 hPa Calm     94 % 0.04 in /  1.02 mm
18:28 71.8 °F /  22.1 °C 69.9 °F /  21.1 °C 29.81 in /  1009.4 hPa Calm     94 % 0.02 in /  0.51 mm
18:33 71.8 °F /  22.1 °C 69.9 °F /  21.1 °C 29.82 in /  1009.7 hPa Calm     94 % 0.02 in /  0.51 mm
18:38 71.8 °F /  22.1 °C 69.9 °F /  21.1 °C 29.81 in /  1009.4 hPa Calm     94 % 0.00 in /  0 mm
18:43 71.8 °F /  22.1 °C 69.9 °F /  21.1 °C 29.81 in /  1009.4 hPa Calm     94 % 0.00 in /  0 mm
18:48 71.8 °F /  22.1 °C 69.9 °F /  21.1 °C 29.81 in /  1009.4 hPa Calm     94 % 0.00 in /  0 mm
18:53 71.8 °F /  22.1 °C 69.9 °F /  21.1 °C 29.81 in /  1009.4 hPa Calm     94 % 0.00 in /  0 mm
18:58 71.8 °F /  22.1 °C 69.9 °F /  21.1 °C 29.82 in /  1009.7 hPa Calm     94 % 0.00 in /  0 mm
19:03 71.8 °F /  22.1 °C 69.9 °F /  21.1 °C 29.82 in /  1009.7 hPa Calm     94 % 0.00 in /  0 mm
19:08 71.8 °F /  22.1 °C 70.3 °F /  21.3 °C 29.81 in /  1009.4 hPa Calm     95 % 0.00 in /  0 mm
19:13 72.0 °F /  22.2 °C 70.4 °F /  21.3 °C 29.81 in /  1009.4 hPa Calm     95 % 0.00 in /  0 mm
19:18 72.0 °F /  22.2 °C 70.4 °F /  21.3 °C 29.82 in /  1009.7 hPa Calm     95 % 0.00 in /  0 mm
19:23 72.0 °F /  22.2 °C 70.4 °F /  21.3 °C 29.81 in /  1009.4 hPa Calm     95 % 0.00 in /  0 mm
19:28 72.0 °F /  22.2 °C 70.4 °F /  21.3 °C 29.81 in /  1009.4 hPa Calm     95 % 0.00 in /  0 mm
19:33 72.0 °F /  22.2 °C 70.4 °F /  21.3 °C 29.81 in /  1009.4 hPa Calm     95 % 0.00 in /  0 mm
19:38 72.0 °F /  22.2 °C 70.6 °F /  21.4 °C 29.82 in /  1009.7 hPa Calm     95 % 0.00 in /  0 mm
19:43 72.1 °F /  22.3 °C 70.6 °F /  21.4 °C 29.83 in /  1010 hPa Calm     95 % 0.00 in /  0 mm
19:48 72.1 °F /  22.3 °C 70.6 °F /  21.4 °C 29.83 in /  1010 hPa Calm     95 % 0.00 in /  0 mm
19:53 72.1 °F /  22.3 °C 70.6 °F /  21.4 °C 29.83 in /  1010 hPa Calm     95 % 0.00 in /  0 mm
19:58 72.1 °F /  22.3 °C 70.6 °F /  21.4 °C 29.83 in /  1010 hPa Calm     95 % 0.00 in /  0 mm
20:03 72.0 °F /  22.2 °C 70.4 °F /  21.3 °C 29.83 in /  1010 hPa Calm     95 % 0.00 in /  0 mm
20:08 72.0 °F /  22.2 °C 70.4 °F /  21.3 °C 29.83 in /  1010 hPa Calm     95 % 0.00 in /  0 mm
20:13 72.0 °F /  22.2 °C 70.4 °F /  21.3 °C 29.83 in /  1010 hPa Calm     95 % 0.00 in /  0 mm
20:18 72.0 °F /  22.2 °C 70.4 °F /  21.3 °C 29.83 in /  1010 hPa Calm     95 % 0.00 in /  0 mm
20:23 72.0 °F /  22.2 °C 70.4 °F /  21.3 °C 29.84 in /  1010.4 hPa Calm     95 % 0.00 in /  0 mm
20:28 72.0 °F /  22.2 °C 70.4 °F /  21.3 °C 29.83 in /  1010 hPa Calm     95 % 0.00 in /  0 mm
20:33 72.0 °F /  22.2 °C 70.4 °F /  21.3 °C 29.83 in /  1010 hPa Calm     95 % 0.00 in /  0 mm
20:38 71.8 °F /  22.1 °C 70.3 °F /  21.3 °C 29.84 in /  1010.4 hPa Calm     95 % 0.00 in /  0 mm
20:43 71.8 °F /  22.1 °C 70.3 °F /  21.3 °C 29.84 in /  1010.4 hPa Calm     95 % 0.00 in /  0 mm
20:48 71.8 °F /  22.1 °C 70.3 °F /  21.3 °C 29.85 in /  1010.7 hPa Calm     95 % 0.00 in /  0 mm
20:53 71.8 °F /  22.1 °C 70.3 °F /  21.3 °C 29.85 in /  1010.7 hPa Calm     95 % 0.00 in /  0 mm
20:58 71.4 °F /  21.9 °C 69.9 °F /  21.1 °C 29.85 in /  1010.7 hPa Calm     95 % 0.00 in /  0 mm
21:03 71.4 °F /  21.9 °C 69.9 °F /  21.1 °C 29.85 in /  1010.7 hPa Calm     95 % 0.00 in /  0 mm
21:08 71.4 °F /  21.9 °C 69.9 °F /  21.1 °C 29.86 in /  1011.1 hPa Calm     95 % 0.00 in /  0 mm
21:13 71.2 °F /  21.8 °C 69.7 °F /  20.9 °C 29.86 in /  1011.1 hPa Calm     95 % 0.00 in /  0 mm
21:18 71.2 °F /  21.8 °C 69.7 °F /  20.9 °C 29.86 in /  1011.1 hPa Calm     95 % 0.00 in /  0 mm
21:23 71.2 °F /  21.8 °C 69.7 °F /  20.9 °C 29.85 in /  1010.7 hPa Calm   1.6 mph /  2.6 km/h 95 % 0.00 in /  0 mm
21:28 70.9 °F /  21.6 °C 69.3 °F /  20.7 °C 29.86 in /  1011.1 hPa Calm   1.6 mph /  2.6 km/h 95 % 0.00 in /  0 mm
21:33 70.9 °F /  21.6 °C 69.3 °F /  20.7 °C 29.86 in /  1011.1 hPa Calm     95 % 0.00 in /  0 mm
21:38 70.7 °F /  21.5 °C 69.2 °F /  20.7 °C 29.86 in /  1011.1 hPa Calm     95 % 0.00 in /  0 mm
21:43 70.7 °F /  21.5 °C 69.2 °F /  20.7 °C 29.85 in /  1010.7 hPa Calm   2.0 mph /  3.2 km/h 95 % 0.00 in /  0 mm
21:48 70.5 °F /  21.4 °C 69.0 °F /  20.6 °C 29.86 in /  1011.1 hPa Calm   2.0 mph /  3.2 km/h 95 % 0.00 in /  0 mm
21:53 70.5 °F /  21.4 °C 69.0 °F /  20.6 °C 29.86 in /  1011.1 hPa Calm     95 % 0.00 in /  0 mm
21:58 70.3 °F /  21.3 °C 68.8 °F /  20.4 °C 29.86 in /  1011.1 hPa SE 1.8 mph /  2.9 km/h 1.8 mph /  2.9 km/h 95 % 0.00 in /  0 mm
22:03 70.3 °F /  21.3 °C 68.8 °F /  20.4 °C 29.87 in /  1011.4 hPa Calm   1.8 mph /  2.9 km/h 95 % 0.00 in /  0 mm
22:08 70.3 °F /  21.3 °C 68.8 °F /  20.4 °C 29.87 in /  1011.4 hPa Calm   1.8 mph /  2.9 km/h 95 % 0.00 in /  0 mm
22:13 70.3 °F /  21.3 °C 68.8 °F /  20.4 °C 29.87 in /  1011.4 hPa Calm     95 % 0.00 in /  0 mm
22:18 70.2 °F /  21.2 °C 68.6 °F /  20.3 °C 29.88 in /  1011.7 hPa Calm     95 % 0.00 in /  0 mm
22:23 70.2 °F /  21.2 °C 68.6 °F /  20.3 °C 29.87 in /  1011.4 hPa Calm     95 % 0.00 in /  0 mm
22:28 70.2 °F /  21.2 °C 68.6 °F /  20.3 °C 29.88 in /  1011.7 hPa Calm     95 % 0.00 in /  0 mm
22:33 70.0 °F /  21.1 °C 68.6 °F /  20.3 °C 29.88 in /  1011.7 hPa Calm     95 % 0.00 in /  0 mm
22:38 70.0 °F /  21.1 °C 68.5 °F /  20.3 °C 29.88 in /  1011.7 hPa Calm     95 % 0.00 in /  0 mm
22:43 70.0 °F /  21.1 °C 68.5 °F /  20.3 °C 29.88 in /  1011.7 hPa Calm     95 % 0.00 in /  0 mm
22:48 70.0 °F /  21.1 °C 68.5 °F /  20.3 °C 29.87 in /  1011.4 hPa Calm     95 % 0.00 in /  0 mm
22:53 70.0 °F /  21.1 °C 68.5 °F /  20.3 °C 29.87 in /  1011.4 hPa Calm     95 % 0.00 in /  0 mm
22:58 70.0 °F /  21.1 °C 68.5 °F /  20.3 °C 29.87 in /  1011.4 hPa Calm     95 % 0.00 in /  0 mm
23:03 70.0 °F /  21.1 °C 68.5 °F /  20.3 °C 29.88 in /  1011.7 hPa Calm     95 % 0.00 in /  0 mm
23:08 69.8 °F /  21 °C 68.3 °F /  20.2 °C 29.88 in /  1011.7 hPa Calm     95 % 0.00 in /  0 mm
23:11 69.8 °F /  21 °C 68.3 °F /  20.2 °C 29.88 in /  1011.7 hPa Calm     95 % 0.00 in /  0 mm
23:16 69.6 °F /  20.9 °C 68.3 °F /  20.2 °C 29.88 in /  1011.7 hPa Calm     95 % 0.00 in /  0 mm
23:21 69.6 °F /  20.9 °C 68.1 °F /  20.1 °C 29.88 in /  1011.7 hPa Calm     95 % 0.00 in /  0 mm
23:26 69.6 °F /  20.9 °C 68.1 °F /  20.1 °C 29.88 in /  1011.7 hPa Calm     95 % 0.00 in /  0 mm
23:31 69.8 °F /  21 °C 68.3 °F /  20.2 °C 29.89 in /  1012.1 hPa Calm     95 % 0.00 in /  0 mm
23:36 69.6 °F /  20.9 °C 68.1 °F /  20.1 °C 29.88 in /  1011.7 hPa Calm     95 % 0.00 in /  0 mm
23:41 69.6 °F /  20.9 °C 68.1 °F /  20.1 °C 29.89 in /  1012.1 hPa Calm     95 % 0.00 in /  0 mm
23:46 69.6 °F /  20.9 °C 68.1 °F /  20.1 °C 29.89 in /  1012.1 hPa Calm     95 % 0.00 in /  0 mm
23:51 69.6 °F /  20.9 °C 68.1 °F /  20.1 °C 29.89 in /  1012.1 hPa Calm     95 % 0.00 in /  0 mm
23:56 69.6 °F /  20.9 °C 68.1 °F /  20.1 °C 29.90 in /  1012.4 hPa Calm     95 % 0.00 in /  0 mm
Burke, Virginia, USA
Compliments of Weather Underground - 3 mb